createdAt,value
2023-01-31T00:01:32.906Z,149333.13
2023-01-31T00:04:01.510Z,149334.38
2023-01-31T00:06:30.275Z,149287.88
2023-01-31T00:08:57.752Z,149299.16
2023-01-31T00:11:25.452Z,149262.69
2023-01-31T00:13:52.419Z,149299.16
2023-01-31T00:16:19.402Z,149297.91
2023-01-31T00:18:46.026Z,149277.81
2023-01-31T00:21:14.201Z,149274.03
2023-01-31T00:23:41.653Z,149268.97
2023-01-31T00:26:19.303Z,149282.81
2023-01-31T00:28:46.688Z,149290.38
2023-01-31T00:31:13.756Z,149311.75
2023-01-31T00:33:41.416Z,149299.16
2023-01-31T00:36:13.450Z,149256.44
2023-01-31T00:38:41.527Z,149276.53
2023-01-31T00:41:07.514Z,149290.38
2023-01-31T00:43:34.721Z,149328.13
2023-01-31T00:46:00.869Z,149287.88
2023-01-31T00:48:27.155Z,149297.91
2023-01-31T00:50:53.059Z,149285.31
2023-01-31T00:53:23.045Z,149279.06
2023-01-31T00:55:50.440Z,149286.59
2023-01-31T00:58:17.166Z,149300.44
2023-01-31T01:00:43.010Z,149306.75
2023-01-31T01:03:08.774Z,149313.00
2023-01-31T01:05:35.332Z,149310.50
2023-01-31T01:08:01.683Z,149301.69
2023-01-31T01:10:27.663Z,149302.94
2023-01-31T01:12:53.472Z,149291.66
2023-01-31T01:15:19.598Z,149279.06
2023-01-31T01:17:45.623Z,149274.03
2023-01-31T01:20:12.111Z,149265.22
2023-01-31T01:22:38.473Z,149265.22
2023-01-31T01:25:05.447Z,149280.31
2023-01-31T01:27:31.576Z,149299.16
2023-01-31T01:29:58.330Z,149265.22
2023-01-31T01:32:24.356Z,149237.56
2023-01-31T01:34:50.469Z,149267.72
2023-01-31T01:37:22.035Z,149274.03
2023-01-31T01:39:49.148Z,149270.28
2023-01-31T01:42:23.289Z,149263.97
2023-01-31T01:44:51.543Z,149232.50
2023-01-31T01:47:26.042Z,149251.38
2023-01-31T01:50:04.407Z,149226.25
2023-01-31T01:52:33.915Z,149245.09
2023-01-31T01:55:06.485Z,149242.59
2023-01-31T01:57:39.537Z,149243.84
2023-01-31T02:00:20.547Z,149211.16
2023-01-31T02:02:49.884Z,149216.22
2023-01-31T02:05:25.947Z,149213.66
2023-01-31T02:07:51.872Z,149231.25
2023-01-31T02:10:30.108Z,149212.41
2023-01-31T02:12:56.427Z,149208.63
2023-01-31T02:15:22.891Z,149227.50
2023-01-31T02:17:48.975Z,149217.47
2023-01-31T02:21:11.844Z,149204.88
2023-01-31T02:24:15.041Z,149198.63
2023-01-31T02:26:52.740Z,149207.38
2023-01-31T02:29:36.975Z,149209.91
2023-01-31T02:32:17.807Z,149222.47
2023-01-31T02:35:02.136Z,149192.28
2023-01-31T02:37:32.081Z,149197.31
2023-01-31T02:40:16.192Z,149199.88
2023-01-31T02:42:52.765Z,149193.56
2023-01-31T02:45:40.982Z,149213.66
2023-01-31T02:48:13.113Z,149183.53
2023-01-31T02:50:48.659Z,149183.53
2023-01-31T02:53:18.617Z,149192.28
2023-01-31T02:56:18.535Z,149191.03
2023-01-31T02:58:58.591Z,149203.63
2023-01-31T03:01:28.843Z,149202.38
2023-01-31T03:03:59.030Z,149212.41
2023-01-31T03:06:24.837Z,149213.66
2023-01-31T03:09:20.996Z,149217.47
2023-01-31T03:12:18.209Z,149201.13
2023-01-31T03:14:58.317Z,149170.94
2023-01-31T03:18:08.901Z,149150.84
2023-01-31T03:21:00.483Z,149177.19
2023-01-31T03:23:30.996Z,149164.66
2023-01-31T03:26:00.870Z,149179.72
2023-01-31T03:28:35.129Z,149160.84
2023-01-31T03:31:13.688Z,149170.94
2023-01-31T03:33:44.768Z,149168.44
2023-01-31T03:36:29.318Z,149183.53
2023-01-31T03:39:04.905Z,149208.63
2023-01-31T03:41:39.693Z,149181.00
2023-01-31T03:44:25.775Z,149160.84
2023-01-31T03:46:55.175Z,149172.19
2023-01-31T03:49:25.532Z,149169.69
2023-01-31T03:51:56.857Z,149148.31
2023-01-31T03:54:27.531Z,149148.31
2023-01-31T03:57:00.561Z,149160.84
2023-01-31T03:59:32.384Z,149157.09
2023-01-31T04:02:00.870Z,149167.16
2023-01-31T04:04:49.008Z,149197.31
2023-01-31T04:07:14.843Z,149164.66
2023-01-31T04:09:40.695Z,149199.88
2023-01-31T04:12:06.735Z,149184.78
2023-01-31T04:14:32.626Z,149172.19
2023-01-31T04:16:58.599Z,149207.38
2023-01-31T04:19:24.583Z,149168.44
2023-01-31T04:21:50.397Z,149154.59
2023-01-31T04:24:16.268Z,149149.56
2023-01-31T04:26:42.175Z,149148.31
2023-01-31T04:29:08.027Z,149162.13
2023-01-31T04:31:34.295Z,149159.59
2023-01-31T04:34:00.131Z,149162.13
2023-01-31T04:36:26.153Z,149179.72
2023-01-31T04:38:52.056Z,149157.09
2023-01-31T04:41:18.159Z,149145.81
2023-01-31T04:43:43.968Z,149145.81
2023-01-31T04:46:10.300Z,149150.84
2023-01-31T04:48:36.587Z,149134.47
2023-01-31T04:51:02.650Z,149120.66
2023-01-31T04:53:28.521Z,149150.84
2023-01-31T04:55:54.560Z,149139.50
2023-01-31T04:58:20.673Z,149140.75
2023-01-31T05:00:46.491Z,149152.09
2023-01-31T05:03:12.532Z,149095.53
2023-01-31T05:05:38.581Z,149144.56
2023-01-31T05:08:04.507Z,149137.00
2023-01-31T05:10:30.522Z,149150.84
2023-01-31T05:12:56.343Z,149144.56
2023-01-31T05:15:22.550Z,149170.94
2023-01-31T05:18:02.216Z,149163.41
2023-01-31T05:20:36.167Z,149174.69
2023-01-31T05:23:02.242Z,149157.09
2023-01-31T05:25:28.064Z,149165.94
2023-01-31T05:27:53.907Z,149129.47
2023-01-31T05:30:20.091Z,149124.41
2023-01-31T05:32:48.550Z,149140.75
2023-01-31T05:35:14.720Z,149173.44
2023-01-31T05:37:44.046Z,149182.25
2023-01-31T05:40:14.395Z,149149.56
2023-01-31T05:42:40.644Z,149150.84
2023-01-31T05:45:08.074Z,149142.00
2023-01-31T05:47:33.926Z,149123.16
2023-01-31T05:50:00.034Z,149115.63
2023-01-31T05:52:25.988Z,149113.13
2023-01-31T05:54:51.915Z,149126.97
2023-01-31T05:57:18.061Z,149135.75
2023-01-31T05:59:44.149Z,149114.38
2023-01-31T06:02:12.840Z,149144.56
2023-01-31T06:04:38.816Z,149129.47
2023-01-31T06:07:05.203Z,149124.41
2023-01-31T06:09:31.095Z,149129.47
2023-01-31T06:11:56.934Z,149174.69
2023-01-31T06:14:22.815Z,149131.97
2023-01-31T06:16:48.599Z,149153.34
2023-01-31T06:19:14.978Z,149126.97
2023-01-31T06:21:40.889Z,149124.41
2023-01-31T06:24:06.989Z,149139.50
2023-01-31T06:26:33.462Z,149155.84
2023-01-31T06:28:59.314Z,149167.16
2023-01-31T06:31:25.304Z,149204.88
2023-01-31T06:33:51.452Z,149155.84
2023-01-31T06:36:19.339Z,149162.13
2023-01-31T06:38:50.129Z,149159.59
2023-01-31T06:41:16.009Z,149155.84
2023-01-31T06:43:41.799Z,149163.41
2023-01-31T06:46:07.698Z,149172.19
2023-01-31T06:48:33.499Z,149174.69
2023-01-31T06:50:59.337Z,149175.94
2023-01-31T06:53:25.177Z,149188.53
2023-01-31T06:55:51.117Z,149172.19
2023-01-31T06:58:20.371Z,149175.94
2023-01-31T07:00:47.128Z,149172.19
2023-01-31T07:03:12.954Z,149153.34
2023-01-31T07:05:39.052Z,149142.00
2023-01-31T07:08:05.181Z,149130.72
2023-01-31T07:10:31.306Z,149125.66
2023-01-31T07:12:57.475Z,149133.22
2023-01-31T07:15:23.361Z,149150.84
2023-01-31T07:17:49.144Z,149162.13
2023-01-31T07:20:15.100Z,149148.31
2023-01-31T07:22:41.023Z,149178.47
2023-01-31T07:25:07.392Z,149181.00
2023-01-31T07:27:33.316Z,149150.84
2023-01-31T07:29:59.173Z,149175.94
2023-01-31T07:32:28.309Z,149159.59
2023-01-31T07:34:54.200Z,149160.84
2023-01-31T07:37:19.995Z,149155.84
2023-01-31T07:39:45.782Z,149164.66
2023-01-31T07:42:11.673Z,149192.28
2023-01-31T07:44:37.515Z,149168.44
2023-01-31T07:47:03.400Z,149182.25
2023-01-31T07:49:29.702Z,149147.06
2023-01-31T07:51:55.558Z,149119.41
2023-01-31T07:54:21.452Z,149128.22
2023-01-31T07:56:47.662Z,149144.56
2023-01-31T07:59:13.600Z,149125.66
2023-01-31T08:01:57.846Z,149167.16
2023-01-31T08:04:23.741Z,149183.53
2023-01-31T08:06:54.438Z,149208.63
2023-01-31T08:09:20.843Z,149150.84
2023-01-31T08:11:47.252Z,149157.09
2023-01-31T08:14:13.601Z,149138.25
2023-01-31T08:16:39.527Z,149123.16
2023-01-31T08:19:05.396Z,149130.72
2023-01-31T08:21:31.615Z,149155.84
2023-01-31T08:23:57.567Z,149150.84
2023-01-31T08:26:23.455Z,149124.41
2023-01-31T08:28:53.183Z,149160.84
2023-01-31T08:31:22.460Z,149154.59
2023-01-31T08:33:50.687Z,149172.19
2023-01-31T08:36:19.861Z,149182.25
2023-01-31T08:38:46.507Z,149162.13
2023-01-31T08:41:13.367Z,149202.38
2023-01-31T08:43:54.219Z,149235.06
2023-01-31T08:46:23.552Z,149223.75
2023-01-31T08:48:49.475Z,149177.19
2023-01-31T08:51:15.457Z,149194.81
2023-01-31T08:53:43.867Z,149183.53
2023-01-31T08:56:11.512Z,149211.16
2023-01-31T08:58:40.855Z,149222.47
2023-01-31T09:01:09.411Z,149238.84
2023-01-31T09:03:35.863Z,149247.63
2023-01-31T09:06:04.383Z,149232.50
2023-01-31T09:08:31.178Z,149222.47
2023-01-31T09:10:59.631Z,149248.88
2023-01-31T09:13:27.147Z,149219.97
2023-01-31T09:16:01.099Z,149235.06
2023-01-31T09:18:27.417Z,149275.28
2023-01-31T09:20:53.736Z,149275.28
2023-01-31T09:23:19.971Z,149257.69
2023-01-31T09:25:55.569Z,149272.78
2023-01-31T09:28:22.337Z,149294.16
2023-01-31T09:30:48.857Z,149289.13
2023-01-31T09:33:15.455Z,149271.53
2023-01-31T09:35:41.609Z,149260.19
2023-01-31T09:38:07.790Z,149233.78
2023-01-31T09:40:37.394Z,149207.38
2023-01-31T09:43:04.394Z,149253.94
2023-01-31T09:45:37.302Z,149260.19
2023-01-31T09:48:06.391Z,149233.78
2023-01-31T09:50:48.001Z,149257.69
2023-01-31T09:53:21.000Z,149282.81
2023-01-31T09:55:55.972Z,149270.28
2023-01-31T09:58:49.727Z,149250.13
2023-01-31T10:01:21.369Z,149242.59
2023-01-31T10:04:14.786Z,149233.78
2023-01-31T10:06:58.000Z,149223.75
2023-01-31T10:09:34.974Z,149212.41
2023-01-31T10:12:15.136Z,149227.50
2023-01-31T10:15:16.586Z,149247.63
2023-01-31T10:17:51.820Z,149280.31
2023-01-31T10:20:18.040Z,149266.47
2023-01-31T10:23:05.697Z,149251.38
2023-01-31T10:25:43.602Z,149214.91
2023-01-31T10:28:17.043Z,149245.09
2023-01-31T10:30:51.057Z,149280.31
2023-01-31T10:33:27.801Z,149261.44
2023-01-31T10:35:56.734Z,149292.91
2023-01-31T10:38:29.417Z,149263.97
2023-01-31T10:41:06.067Z,149285.31
2023-01-31T10:43:41.365Z,149271.53
2023-01-31T10:46:14.635Z,149271.53
2023-01-31T10:48:45.912Z,149301.69
2023-01-31T10:51:13.109Z,149300.44
2023-01-31T10:53:59.605Z,149290.38
2023-01-31T10:56:33.704Z,149346.97
2023-01-31T10:59:01.979Z,149330.63
2023-01-31T11:01:28.571Z,149324.34
2023-01-31T11:03:55.954Z,149314.28
2023-01-31T11:06:23.600Z,149349.50
2023-01-31T11:08:59.124Z,149358.28
2023-01-31T11:11:26.897Z,149325.59
2023-01-31T11:13:55.535Z,149369.59
2023-01-31T11:16:22.642Z,149358.28
2023-01-31T11:18:50.301Z,149390.97
2023-01-31T11:21:25.621Z,149368.34
2023-01-31T11:23:54.422Z,149360.81
2023-01-31T11:26:33.239Z,149363.34
2023-01-31T11:29:00.678Z,149369.59
2023-01-31T11:31:35.364Z,149388.47
2023-01-31T11:34:17.343Z,149374.63
2023-01-31T11:36:46.992Z,149399.81
2023-01-31T11:39:37.189Z,149421.19
2023-01-31T11:42:11.542Z,149388.47
2023-01-31T11:45:00.254Z,149387.22
2023-01-31T11:47:52.382Z,149398.56
2023-01-31T11:50:39.916Z,149359.56
2023-01-31T11:53:21.824Z,149349.50
2023-01-31T11:55:50.475Z,149357.00
2023-01-31T11:58:23.090Z,149353.25
2023-01-31T12:01:06.398Z,149335.63
2023-01-31T12:03:33.136Z,149336.91
2023-01-31T12:06:01.827Z,149336.91
2023-01-31T12:08:32.551Z,149318.03
2023-01-31T12:10:59.356Z,149323.06
2023-01-31T12:13:25.720Z,149362.09
2023-01-31T12:16:05.388Z,149334.38
2023-01-31T12:19:04.131Z,149333.13
2023-01-31T12:21:32.714Z,149345.72
2023-01-31T12:24:09.214Z,149353.25
2023-01-31T12:26:49.195Z,149306.75
2023-01-31T12:29:47.750Z,149343.22
2023-01-31T12:32:23.096Z,149360.81
2023-01-31T12:35:01.533Z,149355.75
2023-01-31T12:37:45.674Z,149396.06
2023-01-31T12:40:36.299Z,149364.59
2023-01-31T12:43:04.343Z,149392.25
2023-01-31T12:46:06.289Z,149370.88
2023-01-31T12:48:40.714Z,149341.97
2023-01-31T12:51:41.546Z,149341.97
2023-01-31T12:54:10.104Z,149346.97
2023-01-31T12:56:38.678Z,149370.88
2023-01-31T12:59:26.227Z,149378.44
2023-01-31T13:02:17.254Z,149390.97
2023-01-31T13:04:56.105Z,149398.56
2023-01-31T13:07:26.172Z,149417.44
2023-01-31T13:09:53.505Z,149411.09
2023-01-31T13:12:28.728Z,149389.72
2023-01-31T13:15:04.440Z,149398.56
2023-01-31T13:17:32.065Z,149389.72
2023-01-31T13:20:28.747Z,149407.34
2023-01-31T13:23:03.337Z,149418.69
2023-01-31T13:25:38.245Z,149404.84
2023-01-31T13:28:18.210Z,149427.47
2023-01-31T13:31:08.315Z,149442.56
2023-01-31T13:33:53.112Z,149440.06
2023-01-31T13:36:43.343Z,149432.53
2023-01-31T13:39:19.674Z,149416.16
2023-01-31T13:41:46.299Z,149422.44
2023-01-31T13:44:14.109Z,149417.44
2023-01-31T13:46:52.130Z,149418.69
2023-01-31T13:49:32.085Z,149416.16
2023-01-31T13:52:02.769Z,149421.19
2023-01-31T13:54:40.260Z,149450.16
2023-01-31T13:57:07.192Z,149432.53
2023-01-31T13:59:37.343Z,149470.28
2023-01-31T14:02:07.438Z,149467.75
2023-01-31T14:04:38.394Z,149456.41
2023-01-31T14:07:06.038Z,149460.19
2023-01-31T14:09:32.939Z,149458.94
2023-01-31T14:12:21.933Z,149475.28
2023-01-31T14:14:52.935Z,149445.06
2023-01-31T14:17:27.936Z,149453.91
2023-01-31T14:19:56.330Z,149501.69
2023-01-31T14:22:41.265Z,149463.94
2023-01-31T14:25:10.046Z,149476.53
2023-01-31T14:27:40.075Z,149479.06
2023-01-31T14:30:06.054Z,149503.00
2023-01-31T14:32:37.682Z,149496.66
2023-01-31T14:35:12.710Z,149477.78
2023-01-31T14:37:50.863Z,149472.78
2023-01-31T14:40:54.273Z,149484.06
2023-01-31T14:43:43.052Z,149491.66
2023-01-31T14:46:18.925Z,149509.28
2023-01-31T14:49:15.399Z,149487.88
2023-01-31T14:51:44.126Z,149506.75
2023-01-31T14:54:42.280Z,149524.38
2023-01-31T14:57:16.924Z,149525.63
2023-01-31T15:00:00.881Z,149510.53
2023-01-31T15:02:33.059Z,149514.28
2023-01-31T15:05:06.307Z,149506.75
2023-01-31T15:07:33.028Z,149505.50
2023-01-31T15:09:59.170Z,149552.03
2023-01-31T15:12:54.841Z,149558.38
2023-01-31T15:15:35.781Z,149518.06
2023-01-31T15:18:12.820Z,149530.66
2023-01-31T15:20:44.848Z,149536.94
2023-01-31T15:23:20.219Z,149545.75
2023-01-31T15:25:48.185Z,149540.75
2023-01-31T15:28:17.141Z,149544.50
2023-01-31T15:30:44.208Z,149529.41
2023-01-31T15:33:27.500Z,149543.25
2023-01-31T15:36:02.653Z,149529.41
2023-01-31T15:38:56.323Z,149559.63
2023-01-31T15:41:25.649Z,149550.78
2023-01-31T15:43:53.907Z,149559.63
2023-01-31T15:46:24.523Z,149562.13
2023-01-31T15:48:51.140Z,149553.28
2023-01-31T15:51:18.090Z,149549.53
2023-01-31T15:53:44.644Z,149560.88
2023-01-31T15:56:31.897Z,149568.41
2023-01-31T15:58:58.204Z,149557.09
2023-01-31T16:01:30.138Z,149570.91
2023-01-31T16:03:58.483Z,149591.06
2023-01-31T16:06:25.835Z,149586.03
2023-01-31T16:09:00.879Z,149572.16
2023-01-31T16:11:32.964Z,149586.03
2023-01-31T16:14:02.986Z,149588.53
2023-01-31T16:16:29.928Z,149572.16
2023-01-31T16:18:59.683Z,149588.53
2023-01-31T16:21:42.421Z,149586.03
2023-01-31T16:24:13.857Z,149581.00
2023-01-31T16:26:53.386Z,149618.75
2023-01-31T16:29:22.016Z,149637.66
2023-01-31T16:31:51.094Z,149631.38
2023-01-31T16:34:34.438Z,149625.03
2023-01-31T16:37:03.229Z,149643.91
2023-01-31T16:39:35.034Z,149613.75
2023-01-31T16:42:07.860Z,149631.38
2023-01-31T16:44:39.633Z,149642.66
2023-01-31T16:47:05.726Z,149650.25
2023-01-31T16:49:35.977Z,149674.16
2023-01-31T16:52:37.301Z,149676.66
2023-01-31T16:55:12.863Z,149674.16
2023-01-31T16:57:39.195Z,149662.81
2023-01-31T17:00:26.671Z,149684.25
2023-01-31T17:02:55.608Z,149680.44
2023-01-31T17:05:28.391Z,149686.75
2023-01-31T17:07:56.736Z,149672.91
2023-01-31T17:10:28.674Z,149666.63
2023-01-31T17:13:13.273Z,149660.28
2023-01-31T17:15:40.271Z,149670.38
2023-01-31T17:18:06.668Z,149686.75
2023-01-31T17:20:32.539Z,149675.41
2023-01-31T17:23:03.018Z,149676.66
2023-01-31T17:25:35.845Z,149686.75
2023-01-31T17:28:02.555Z,149672.91
2023-01-31T17:30:30.379Z,149696.81
2023-01-31T17:32:57.833Z,149671.66
2023-01-31T17:35:31.109Z,149689.28
2023-01-31T17:37:57.295Z,149723.28
2023-01-31T17:40:23.428Z,149686.75
2023-01-31T17:42:52.455Z,149699.38
2023-01-31T17:45:19.582Z,149704.38
2023-01-31T17:47:46.184Z,149714.44
2023-01-31T17:50:21.786Z,149714.44
2023-01-31T17:52:47.558Z,149711.94
2023-01-31T17:55:14.211Z,149718.25
2023-01-31T17:57:40.246Z,149685.50
2023-01-31T18:00:10.652Z,149711.94
2023-01-31T18:02:37.330Z,149705.66
2023-01-31T18:05:04.247Z,149703.13
2023-01-31T18:07:30.409Z,149713.19
2023-01-31T18:09:56.329Z,149720.75
2023-01-31T18:12:22.380Z,149732.06
2023-01-31T18:14:48.250Z,149715.69
2023-01-31T18:17:14.252Z,149713.19
2023-01-31T18:19:40.105Z,149724.53
2023-01-31T18:22:05.989Z,149686.75
2023-01-31T18:24:32.197Z,149728.31
2023-01-31T18:26:58.159Z,149703.13
2023-01-31T18:29:25.700Z,149711.94
2023-01-31T18:31:57.226Z,149691.78
2023-01-31T18:34:24.397Z,149700.63
2023-01-31T18:36:50.341Z,149711.94
2023-01-31T18:39:16.386Z,149710.66
2023-01-31T18:41:42.358Z,149723.28
2023-01-31T18:44:08.263Z,149716.94
2023-01-31T18:46:34.193Z,149733.31
2023-01-31T18:49:00.143Z,149732.06
2023-01-31T18:51:26.190Z,149735.88
2023-01-31T18:53:52.093Z,149728.31
2023-01-31T18:56:19.872Z,149762.31
2023-01-31T18:58:49.257Z,149764.81
2023-01-31T19:01:18.290Z,149750.97
2023-01-31T19:03:46.096Z,149738.41
2023-01-31T19:06:15.860Z,149735.88
2023-01-31T19:08:43.117Z,149738.41
2023-01-31T19:11:12.245Z,149737.13
2023-01-31T19:13:39.737Z,149730.81
2023-01-31T19:16:11.479Z,149730.81
2023-01-31T19:18:38.100Z,149722.03
2023-01-31T19:21:18.915Z,149719.50
2023-01-31T19:23:45.812Z,149742.16
2023-01-31T19:26:13.535Z,149718.25
2023-01-31T19:28:40.300Z,149691.78
2023-01-31T19:31:12.170Z,149686.75
2023-01-31T19:33:39.546Z,149708.16
2023-01-31T19:36:10.760Z,149688.00
2023-01-31T19:38:36.768Z,149652.75
2023-01-31T19:41:07.248Z,149679.19
2023-01-31T19:43:33.414Z,149652.75
2023-01-31T19:45:59.405Z,149618.75
2023-01-31T19:48:27.472Z,149609.97
2023-01-31T19:50:54.705Z,149609.97
2023-01-31T19:53:20.842Z,149604.91
2023-01-31T19:55:55.774Z,149646.47
2023-01-31T19:58:24.970Z,149633.88
2023-01-31T20:00:54.137Z,149621.28
2023-01-31T20:03:19.995Z,149628.84
2023-01-31T20:05:45.928Z,149643.91
2023-01-31T20:08:11.754Z,149606.16
2023-01-31T20:10:37.908Z,149636.38
2023-01-31T20:13:04.361Z,149606.16
2023-01-31T20:15:31.060Z,149607.41
2023-01-31T20:17:57.003Z,149597.38
2023-01-31T20:20:23.844Z,149641.41
2023-01-31T20:22:50.081Z,149613.75
2023-01-31T20:25:16.121Z,149646.47
2023-01-31T20:27:42.081Z,149607.41
2023-01-31T20:30:09.242Z,149593.59
2023-01-31T20:32:35.165Z,149598.63
2023-01-31T20:35:01.306Z,149611.22
2023-01-31T20:37:28.063Z,149604.91
2023-01-31T20:39:54.450Z,149623.78
2023-01-31T20:42:20.790Z,149592.34
2023-01-31T20:44:46.662Z,149631.38
2023-01-31T20:47:12.755Z,149620.03
2023-01-31T20:49:38.704Z,149641.41
2023-01-31T20:52:04.843Z,149649.00
2023-01-31T20:54:30.820Z,149608.66
2023-01-31T20:56:57.505Z,149609.97
2023-01-31T20:59:23.783Z,149606.16
2023-01-31T21:01:50.190Z,149627.59
2023-01-31T21:04:16.682Z,149616.25
2023-01-31T21:06:42.834Z,149631.38
2023-01-31T21:09:09.203Z,149649.00
2023-01-31T21:11:35.571Z,149594.88
2023-01-31T21:14:01.857Z,149608.66
2023-01-31T21:16:27.803Z,149618.75
2023-01-31T21:18:55.759Z,149575.97
2023-01-31T21:21:24.705Z,149597.38
2023-01-31T21:23:53.003Z,149592.34
2023-01-31T21:26:20.382Z,149570.91
2023-01-31T21:28:46.941Z,149569.66
2023-01-31T21:31:18.375Z,149570.91
2023-01-31T21:33:49.816Z,149544.50
2023-01-31T21:36:19.000Z,149547.03
2023-01-31T21:38:45.302Z,149581.00
2023-01-31T21:41:30.970Z,149560.88
2023-01-31T21:43:57.420Z,149563.38
2023-01-31T21:46:24.741Z,149558.38
2023-01-31T21:48:51.189Z,149519.31
2023-01-31T21:51:19.539Z,149510.53
2023-01-31T21:53:45.943Z,149490.41
2023-01-31T21:56:20.048Z,149467.75
2023-01-31T21:58:46.155Z,149496.66
2023-01-31T22:01:17.174Z,149491.66
2023-01-31T22:03:43.388Z,149516.81
2023-01-31T22:06:12.103Z,149505.50
2023-01-31T22:08:41.165Z,149509.28
2023-01-31T22:11:08.502Z,149516.81
2023-01-31T22:13:34.998Z,149486.63
2023-01-31T22:16:02.447Z,149533.16
2023-01-31T22:18:29.362Z,149506.75
2023-01-31T22:21:13.156Z,149523.13
2023-01-31T22:23:43.977Z,149528.13
2023-01-31T22:26:12.472Z,149516.81
2023-01-31T22:28:39.003Z,149535.66
2023-01-31T22:31:06.763Z,149523.13
2023-01-31T22:33:35.189Z,149511.78
2023-01-31T22:36:01.908Z,149487.88
2023-01-31T22:38:28.051Z,149497.94
2023-01-31T22:41:02.593Z,149491.66
2023-01-31T22:43:29.487Z,149484.06
2023-01-31T22:45:57.834Z,149509.28
2023-01-31T22:48:24.832Z,149519.31
2023-01-31T22:50:59.189Z,149569.66
2023-01-31T22:53:26.439Z,149553.28
2023-01-31T22:55:53.118Z,149555.81
2023-01-31T22:58:20.197Z,149565.91
2023-01-31T23:00:47.057Z,149567.16
2023-01-31T23:03:13.172Z,149552.03
2023-01-31T23:05:42.270Z,149531.91
2023-01-31T23:08:09.464Z,149583.50
2023-01-31T23:10:36.115Z,149588.53
2023-01-31T23:13:03.375Z,149559.63
2023-01-31T23:15:29.375Z,149582.25
2023-01-31T23:17:55.249Z,149584.78
2023-01-31T23:20:22.246Z,149578.50
2023-01-31T23:22:53.676Z,149558.38
2023-01-31T23:25:20.914Z,149586.03
2023-01-31T23:27:47.668Z,149584.78
2023-01-31T23:30:15.644Z,149591.06
2023-01-31T23:32:43.066Z,149569.66
2023-01-31T23:35:09.842Z,149622.53
2023-01-31T23:37:36.101Z,149594.88
2023-01-31T23:40:03.852Z,149608.66
2023-01-31T23:42:29.771Z,149588.53
2023-01-31T23:44:55.578Z,149609.97
2023-01-31T23:47:21.428Z,149616.25
2023-01-31T23:49:47.335Z,149636.38
2023-01-31T23:52:13.671Z,149613.75
2023-01-31T23:54:39.689Z,149604.91
2023-01-31T23:57:05.795Z,149591.06
2023-01-31T23:59:34.297Z,149606.16
